Time;durP1;ratioP1;P1;durP2;ratioP2;P2;SDS_P1;SDS_P2;PMS_P1;PMS_P2;Temp;Humidity;BMP_temperature;BMP_pressure;BME280_temperature;BME280_humidity;BME280_pressure;Samples;Min_cycle;Max_cycle;Signal;HPM_P1;HPM_P2
2023/08/09 00:00:53;;;;;;;;;;;;;;;;;;5004900;28;19925;-74
2023/08/09 00:03:40;;;;;;;;;;;;;;;;;;5005287;28;20369;-74
2023/08/09 00:06:26;;;;;;;;;;;;;;;;;;5001068;28;19921;-74
2023/08/09 00:09:13;;;;;;;;;;;;;;;;;;4997002;28;19914;-75
2023/08/09 00:11:59;;;;;;;;;;;;;;;;;;4996518;28;19921;-74
2023/08/09 00:14:46;;;;;;;;;;;;;;;;;;5001589;28;19922;-74
2023/08/09 00:17:32;;;;;;;;;;;;;;;;;;4998157;28;19925;-74
2023/08/09 00:20:20;;;;;;;;;;;;;;;;;;5002986;28;19925;-75
2023/08/09 00:23:07;;;;;;;;;;;;;;;;;;4989776;28;19924;-75
2023/08/09 00:25:53;;;;;;;;;;;;;;;;;;5000797;28;20354;-75
2023/08/09 00:28:40;;;;;;;;;;;;;;;;;;4996487;28;19917;-75
2023/08/09 00:31:26;;;;;;;;;;;;;;;;;;5000755;28;19928;-74
2023/08/09 00:34:13;;;;;;;;;;;;;;;;;;5002937;28;19930;-75
2023/08/09 00:36:59;;;;;;;;;;;;;;;;;;4985087;28;19925;-75
2023/08/09 00:39:46;;;;;;;;;;;;;;;;;;4994996;28;19928;-76
2023/08/09 00:42:32;;;;;;;;;;;;;;;;;;5000488;28;19914;-74
2023/08/09 00:45:19;;;;;;;;;;;;;;;;;;5004752;28;19932;-75
2023/08/09 00:48:05;;;;;;;;;;;;;;;;;;5017211;28;19913;-74
2023/08/09 00:50:53;;;;;;;;;;;;;;;;;;5018719;28;19924;-74
2023/08/09 00:53:39;;;;;;;;;;;;;;;;;;5024241;28;20320;-75
2023/08/09 00:56:26;;;;;;;;;;;;;;;;;;5005302;28;19928;-74
2023/08/09 00:59:12;;;;;;;;;;;;;;;;;;5026048;28;19932;-75
2023/08/09 01:01:58;;;;;;;;;;;;;;;;;;5015451;28;19913;-74
2023/08/09 01:04:45;;;;;;;;;;;;;;;;;;5018786;28;19925;-75
2023/08/09 01:07:32;;;;;;;;;;;;;;;;;;5014927;28;19928;-76
2023/08/09 01:10:18;;;;;;;;;;;;;;;;;;5026355;28;19921;-74
2023/08/09 01:13:04;;;;;;;;;;;;;;;;;;5021800;28;19930;-73
2023/08/09 01:15:51;;;;;;;;;;;;;;;;;;5022475;28;20022;-73
2023/08/09 01:18:37;;;;;;;;;;;;;;;;;;5024551;28;19928;-74
2023/08/09 01:21:24;;;;;;;;;;;;;;;;;;5026255;28;19921;-74
2023/08/09 01:24:12;;;;;;;;;;;;;;;;;;5017163;28;20401;-73
2023/08/09 01:26:58;;;;;;;;;;;;;;;;;;5024117;28;19917;-75
2023/08/09 01:29:45;;;;;;;;;;;;;;;;;;5019486;28;19925;-74
2023/08/09 01:32:31;;;;;;;;;;;;;;;;;;5026684;28;19925;-75
2023/08/09 01:35:18;;;;;;;;;;;;;;;;;;5010113;28;20477;-74
2023/08/09 01:38:04;;;;;;;;;;;;;;;;;;5031542;28;19921;-75
2023/08/09 01:40:51;;;;;;;;;;;;;;;;;;5013015;28;19913;-74
2023/08/09 01:43:37;;;;;;;;;;;;;;;;;;5022440;28;20652;-74
2023/08/09 01:46:24;;;;;;;;;;;;;;;;;;5015921;28;19925;-75
2023/08/09 01:49:10;;;;;;;;;;;;;;;;;;5003730;28;19927;-75
2023/08/09 01:51:57;;;;;;;;;;;;;;;;;;5024057;28;19928;-74
2023/08/09 01:54:43;;;;;;;;;;;;;;;;;;5020695;28;19936;-76
2023/08/09 01:57:30;;;;;;;;;;;;;;;;;;5029934;28;19923;-74
2023/08/09 02:00:18;;;;;;;;;;;;;;;;;;5025912;28;19927;-74
2023/08/09 02:03:06;;;;;;;;;;;;;;;;;;5030136;28;19916;-74
2023/08/09 02:05:53;;;;;;;;;;;;;;;;;;5019300;28;19926;-74
2023/08/09 02:08:39;;;;;;;;;;;;;;;;;;5021138;28;19924;-74
2023/08/09 02:11:26;;;;;;;;;;;;;;;;;;5022759;28;19917;-75
2023/08/09 02:14:12;;;;;;;;;;;;;;;;;;5021838;28;19932;-74
2023/08/09 02:17:03;;;;;;;;;;;;;;;;;;5021238;28;20284;-75
2023/08/09 02:19:49;;;;;;;;;;;;;;;;;;5014567;28;19921;-75
2023/08/09 02:22:36;;;;;;;;;;;;;;;;;;5012839;28;20244;-74
2023/08/09 02:25:23;;;;;;;;;;;;;;;;;;5016719;28;19928;-74
2023/08/09 02:28:09;;;;;;;;;;;;;;;;;;5013941;28;19975;-74
2023/08/09 02:30:56;;;;;;;;;;;;;;;;;;5008238;28;20058;-74
2023/08/09 02:33:43;;;;;;;;;;;;;;;;;;5017423;28;19925;-74
2023/08/09 02:36:29;;;;;;;;;;;;;;;;;;5021782;28;19921;-74
2023/08/09 02:39:16;;;;;;;;;;;;;;;;;;5026589;28;19936;-73
2023/08/09 02:42:02;;;;;;;;;;;;;;;;;;5026367;28;19928;-74
2023/08/09 02:44:49;;;;;;;;;;;;;;;;;;5016463;28;19925;-75
2023/08/09 02:47:36;;;;;;;;;;;;;;;;;;5020660;28;19925;-75
2023/08/09 02:50:26;;;;;;;;;;;;;;;;;;5021961;28;19917;-75
2023/08/09 02:53:12;;;;;;;;;;;;;;;;;;5027256;28;20028;-76
2023/08/09 02:55:59;;;;;;;;;;;;;;;;;;5009479;28;19928;-75
2023/08/09 02:58:45;;;;;;;;;;;;;;;;;;5014121;28;19924;-75
2023/08/09 03:01:33;;;;;;;;;;;;;;;;;;5015962;28;19917;-75
2023/08/09 03:04:19;;;;;;;;;;;;;;;;;;5019121;28;19921;-74
2023/08/09 03:07:06;;;;;;;;;;;;;;;;;;5009732;28;20564;-74
2023/08/09 03:09:53;;;;;;;;;;;;;;;;;;5020112;28;19917;-73
2023/08/09 03:12:40;;;;;;;;;;;;;;;;;;5015267;28;19932;-73
2023/08/09 03:15:26;;;;;;;;;;;;;;;;;;5017189;28;19925;-75
2023/08/09 03:18:13;;;;;;;;;;;;;;;;;;5014542;28;20356;-74
2023/08/09 03:21:00;;;;;;;;;;;;;;;;;;5012791;28;19917;-74
2023/08/09 03:23:46;;;;;;;;;;;;;;;;;;5018630;28;19971;-74
2023/08/09 03:26:33;;;;;;;;;;;;;;;;;;5019230;28;19917;-74
2023/08/09 03:29:19;;;;;;;;;;;;;;;;;;5014228;28;20529;-74
2023/08/09 03:32:06;;;;;;;;;;;;;;;;;;5016747;28;19917;-74
2023/08/09 03:34:52;;;;;;;;;;;;;;;;;;5019122;28;20324;-75
2023/08/09 03:37:39;;;;;;;;;;;;;;;;;;5019778;28;19927;-74
2023/08/09 03:40:25;;;;;;;;;;;;;;;;;;5019376;28;19917;-74
2023/08/09 03:43:12;;;;;;;;;;;;;;;;;;5028751;28;19917;-74
2023/08/09 03:45:58;;;;;;;;;;;;;;;;;;5013709;28;19933;-74
2023/08/09 03:48:44;;;;;;;;;;;;;;;;;;5022981;28;20270;-75
2023/08/09 03:51:31;;;;;;;;;;;;;;;;;;5017201;28;19914;-74
2023/08/09 03:54:17;;;;;;;;;;;;;;;;;;5018901;28;19929;-75
2023/08/09 03:57:06;;;;;;;;;;;;;;;;;;5013341;28;20384;-75
2023/08/09 03:59:54;;;;;;;;;;;;;;;;;;5017608;28;20391;-74
2023/08/09 04:02:40;;;;;;;;;;;;;;;;;;5018928;28;19924;-74
2023/08/09 04:05:26;;;;;;;;;;;;;;;;;;5020678;28;19924;-74
2023/08/09 04:08:13;;;;;;;;;;;;;;;;;;5017064;28;19923;-74
2023/08/09 04:10:59;;;;;;;;;;;;;;;;;;5018017;28;19917;-74
2023/08/09 04:13:46;;;;;;;;;;;;;;;;;;5017148;28;19925;-75
2023/08/09 04:16:32;;;;;;;;;;;;;;;;;;5013692;28;19933;-74
2023/08/09 04:19:19;;;;;;;;;;;;;;;;;;5012515;28;19921;-74
2023/08/09 04:22:05;;;;;;;;;;;;;;;;;;5019081;28;20035;-74
2023/08/09 04:24:52;;;;;;;;;;;;;;;;;;5013502;28;19917;-74
2023/08/09 04:27:39;;;;;;;;;;;;;;;;;;5020067;28;19933;-74
2023/08/09 04:30:25;;;;;;;;;;;;;;;;;;5016342;28;19921;-74
2023/08/09 04:33:12;;;;;;;;;;;;;;;;;;5016160;28;19944;-75
2023/08/09 04:35:58;;;;;;;;;;;;;;;;;;5009587;28;19926;-74
2023/08/09 04:38:45;;;;;;;;;;;;;;;;;;5023100;28;19931;-74
2023/08/09 04:41:31;;;;;;;;;;;;;;;;;;5018700;28;19932;-73
2023/08/09 04:44:18;;;;;;;;;;;;;;;;;;5016396;28;19921;-74
2023/08/09 04:47:04;;;;;;;;;;;;;;;;;;5007884;28;20364;-74
2023/08/09 04:49:51;;;;;;;;;;;;;;;;;;5022060;28;19922;-74
2023/08/09 04:52:38;;;;;;;;;;;;;;;;;;5018613;28;19963;-75
2023/08/09 04:55:25;;;;;;;;;;;;;;;;;;5009384;28;19921;-74
2023/08/09 04:58:11;;;;;;;;;;;;;;;;;;5019272;28;19960;-74
2023/08/09 05:00:58;;;;;;;;;;;;;;;;;;5022499;28;19913;-74
2023/08/09 05:03:45;;;;;;;;;;;;;;;;;;5025018;28;19917;-75
2023/08/09 05:06:31;;;;;;;;;;;;;;;;;;5019407;28;19917;-74
2023/08/09 05:09:18;;;;;;;;;;;;;;;;;;5021461;28;19925;-76
2023/08/09 05:12:04;;;;;;;;;;;;;;;;;;5022901;28;19933;-76
2023/08/09 05:14:51;;;;;;;;;;;;;;;;;;5019522;28;20409;-76
2023/08/09 05:17:37;;;;;;;;;;;;;;;;;;5018388;28;19921;-76
2023/08/09 05:20:24;;;;;;;;;;;;;;;;;;5009965;28;19917;-77
2023/08/09 05:23:10;;;;;;;;;;;;;;;;;;5013814;28;19929;-77
2023/08/09 05:25:57;;;;;;;;;;;;;;;;;;5015403;28;20379;-77
2023/08/09 05:28:43;;;;;;;;;;;;;;;;;;5010447;28;19929;-77
2023/08/09 05:31:30;;;;;;;;;;;;;;;;;;5016728;28;20348;-74
2023/08/09 05:34:16;;;;;;;;;;;;;;;;;;5017652;28;19925;-75
2023/08/09 05:37:03;;;;;;;;;;;;;;;;;;5016693;28;19921;-75
2023/08/09 05:39:49;;;;;;;;;;;;;;;;;;5016457;28;19921;-77
2023/08/09 05:42:36;;;;;;;;;;;;;;;;;;5006049;28;20486;-76
2023/08/09 05:45:22;;;;;;;;;;;;;;;;;;5023178;28;19933;-77
2023/08/09 05:48:09;;;;;;;;;;;;;;;;;;5023562;28;19925;-76
2023/08/09 05:50:55;;;;;;;;;;;;;;;;;;5023669;28;19928;-76
2023/08/09 05:53:42;;;;;;;;;;;;;;;;;;5018808;28;19945;-76
2023/08/09 05:56:28;;;;;;;;;;;;;;;;;;5026948;28;19924;-76
2023/08/09 05:59:14;;;;;;;;;;;;;;;;;;5025260;28;19921;-76
2023/08/09 06:02:03;;;;;;;;;;;;;;;;;;5005693;28;19988;-75
2023/08/09 06:04:49;;;;;;;;;;;;;;;;;;5030514;28;19925;-77
2023/08/09 06:07:36;;;;;;;;;;;;;;;;;;5022215;28;19927;-75
2023/08/09 06:10:23;;;;;;;;;;;;;;;;;;5019910;28;20368;-75
2023/08/09 06:13:09;;;;;;;;;;;;;;;;;;5020575;28;19929;-72
2023/08/09 06:15:56;;;;;;;;;;;;;;;;;;5023285;28;20495;-74
2023/08/09 06:18:42;;;;;;;;;;;;;;;;;;5024075;28;19924;-73
2023/08/09 06:21:29;;;;;;;;;;;;;;;;;;5023375;28;20603;-74
2023/08/09 06:24:15;;;;;;;;;;;;;;;;;;5022922;28;19928;-73
2023/08/09 06:27:01;;;;;;;;;;;;;;;;;;5025090;28;19971;-73
2023/08/09 06:29:48;;;;;;;;;;;;;;;;;;5024596;28;19924;-71
2023/08/09 06:32:34;;;;;;;;;;;;;;;;;;5018875;28;19921;-71
2023/08/09 06:35:21;;;;;;;;;;;;;;;;;;5013009;28;19925;-73
2023/08/09 06:38:07;;;;;;;;;;;;;;;;;;5025347;28;20387;-72
2023/08/09 06:40:54;;;;;;;;;;;;;;;;;;5016885;28;19940;-72
2023/08/09 06:43:40;;;;;;;;;;;;;;;;;;5021746;28;19928;-71
2023/08/09 06:46:27;;;;;;;;;;;;;;;;;;5020708;28;19941;-72
2023/08/09 06:49:13;;;;;;;;;;;;;;;;;;5024359;28;19921;-72
2023/08/09 06:52:00;;;;;;;;;;;;;;;;;;5022279;28;20016;-72
2023/08/09 06:54:47;;;;;;;;;;;;;;;;;;5013914;28;19929;-72
2023/08/09 06:57:34;;;;;;;;;;;;;;;;;;5023540;28;19921;-72
2023/08/09 07:00:20;;;;;;;;;;;;;;;;;;5021814;28;19921;-72
2023/08/09 07:03:07;;;;;;;;;;;;;;;;;;5015622;28;19921;-72
2023/08/09 07:05:54;;;;;;;;;;;;;;;;;;5022834;28;19924;-72
2023/08/09 07:08:41;;;;;;;;;;;;;;;;;;5023954;28;19917;-72
2023/08/09 07:11:27;;;;;;;;;;;;;;;;;;5019364;28;19921;-71
2023/08/09 07:14:14;;;;;;;;;;;;;;;;;;5013308;28;19935;-71
2023/08/09 07:17:00;;;;;;;;;;;;;;;;;;5009122;28;19921;-72
2023/08/09 07:19:47;;;;;;;;;;;;;;;;;;5002242;28;19921;-72
2023/08/09 07:22:34;;;;;;;;;;;;;;;;;;5023396;28;19966;-72
2023/08/09 07:25:20;;;;;;;;;;;;;;;;;;5022335;28;19924;-72
2023/08/09 07:28:07;;;;;;;;;;;;;;;;;;5021710;28;19928;-74
2023/08/09 07:30:55;;;;;;;;;;;;;;;;;;5016375;28;20242;-72
2023/08/09 07:33:41;;;;;;;;;;;;;;;;;;5017101;28;19925;-72
2023/08/09 07:36:27;;;;;;;;;;;;;;;;;;5020169;28;20474;-72
2023/08/09 07:39:14;;;;;;;;;;;;;;;;;;5025965;28;19918;-71
2023/08/09 07:42:00;;;;;;;;;;;;;;;;;;5024038;28;19943;-71
2023/08/09 07:44:47;;;;;;;;;;;;;;;;;;5024863;28;20403;-73
2023/08/09 07:47:33;;;;;;;;;;;;;;;;;;5024526;28;19929;-72
2023/08/09 07:50:20;;;;;;;;;;;;;;;;;;5019007;28;19925;-73
2023/08/09 07:53:07;;;;;;;;;;;;;;;;;;5008854;28;19935;-72
2023/08/09 07:55:53;;;;;;;;;;;;;;;;;;5020279;28;19952;-72
2023/08/09 07:58:40;;;;;;;;;;;;;;;;;;5022922;28;19931;-72
2023/08/09 08:01:26;;;;;;;;;;;;;;;;;;5022653;28;19917;-71
2023/08/09 08:04:14;;;;;;;;;;;;;;;;;;5001599;28;19921;-72
2023/08/09 08:07:00;;;;;;;;;;;;;;;;;;5007617;28;19917;-72
2023/08/09 08:09:47;;;;;;;;;;;;;;;;;;5020469;28;19929;-73
2023/08/09 08:12:33;;;;;;;;;;;;;;;;;;5022219;28;19923;-72
2023/08/09 08:15:20;;;;;;;;;;;;;;;;;;5024271;28;20446;-72
2023/08/09 08:18:06;;;;;;;;;;;;;;;;;;5010598;28;19921;-72
2023/08/09 08:20:53;;;;;;;;;;;;;;;;;;5023128;28;20387;-72
2023/08/09 08:23:40;;;;;;;;;;;;;;;;;;5019620;28;19936;-73
2023/08/09 08:26:26;;;;;;;;;;;;;;;;;;5021246;28;20487;-72
2023/08/09 08:29:13;;;;;;;;;;;;;;;;;;5013879;28;20292;-73
2023/08/09 08:31:59;;;;;;;;;;;;;;;;;;5018574;28;19927;-73
2023/08/09 08:34:46;;;;;;;;;;;;;;;;;;5023736;28;20335;-72
2023/08/09 08:37:32;;;;;;;;;;;;;;;;;;5020218;28;19924;-72
2023/08/09 08:40:20;;;;;;;;;;;;;;;;;;5020896;28;19935;-72
2023/08/09 08:43:08;;;;;;;;;;;;;;;;;;5017699;28;19923;-72
2023/08/09 08:45:55;;;;;;;;;;;;;;;;;;5018022;28;19936;-73
2023/08/09 08:48:41;;;;;;;;;;;;;;;;;;5016900;28;19923;-72
2023/08/09 08:51:28;;;;;;;;;;;;;;;;;;5007678;28;19956;-73
2023/08/09 08:54:15;;;;;;;;;;;;;;;;;;5014565;28;20383;-72
2023/08/09 08:57:02;;;;;;;;;;;;;;;;;;5017326;28;19922;-73
2023/08/09 08:59:48;;;;;;;;;;;;;;;;;;5001572;28;19925;-73
2023/08/09 09:02:35;;;;;;;;;;;;;;;;;;5008698;28;19928;-72
2023/08/09 09:05:21;;;;;;;;;;;;;;;;;;5015778;28;19917;-72
2023/08/09 09:08:08;;;;;;;;;;;;;;;;;;5019910;28;19927;-72
2023/08/09 09:10:55;;;;;;;;;;;;;;;;;;5023350;28;19918;-72
2023/08/09 09:13:41;;;;;;;;;;;;;;;;;;5023351;28;20321;-73
2023/08/09 09:16:28;;;;;;;;;;;;;;;;;;5020239;28;19927;-72
2023/08/09 09:19:14;;;;;;;;;;;;;;;;;;5022106;28;19924;-73
2023/08/09 09:22:01;;;;;;;;;;;;;;;;;;5019466;28;19921;-73
2023/08/09 09:24:47;;;;;;;;;;;;;;;;;;5024861;28;19917;-72
2023/08/09 09:27:34;;;;;;;;;;;;;;;;;;5024616;28;19921;-71
2023/08/09 09:30:24;;;;;;;;;;;;;;;;;;5006176;28;19921;-72
2023/08/09 09:33:10;;;;;;;;;;;;;;;;;;5021719;28;20020;-73
2023/08/09 09:35:56;;;;;;;;;;;;;;;;;;5024530;28;19927;-72
2023/08/09 09:38:43;;;;;;;;;;;;;;;;;;5026292;28;19936;-72
2023/08/09 09:41:29;;;;;;;;;;;;;;;;;;5011278;28;19917;-73
2023/08/09 09:44:16;;;;;;;;;;;;;;;;;;5022233;28;19922;-72
2023/08/09 09:47:03;;;;;;;;;;;;;;;;;;5020119;28;19926;-72
2023/08/09 09:49:49;;;;;;;;;;;;;;;;;;5026673;28;19927;-72
2023/08/09 09:52:36;;;;;;;;;;;;;;;;;;5017583;28;19947;-72
2023/08/09 09:55:27;;;;;;;;;;;;;;;;;;5015410;28;19928;-72
2023/08/09 09:58:14;;;;;;;;;;;;;;;;;;5023191;28;19925;-70
2023/08/09 10:01:01;;;;;;;;;;;;;;;;;;5022897;28;19925;-72
2023/08/09 10:03:48;;;;;;;;;;;;;;;;;;5025141;28;19921;-73
2023/08/09 10:06:36;;;;;;;;;;;;;;;;;;5018835;28;19928;-73
2023/08/09 10:09:22;;;;;;;;;;;;;;;;;;5021788;28;19917;-72
2023/08/09 10:12:09;;;;;;;;;;;;;;;;;;5021743;28;19917;-72
2023/08/09 10:14:55;;;;;;;;;;;;;;;;;;5023567;28;19925;-72
2023/08/09 10:17:42;;;;;;;;;;;;;;;;;;5025378;28;19924;-72
2023/08/09 10:20:28;;;;;;;;;;;;;;;;;;5016514;28;20312;-72
2023/08/09 10:23:15;;;;;;;;;;;;;;;;;;5021595;28;19916;-73
2023/08/09 10:26:01;;;;;;;;;;;;;;;;;;5021306;28;19917;-72
2023/08/09 10:28:48;;;;;;;;;;;;;;;;;;5023675;28;19972;-72
2023/08/09 10:31:35;;;;;;;;;;;;;;;;;;5002364;28;19922;-72
2023/08/09 10:34:21;;;;;;;;;;;;;;;;;;5015559;28;19939;-72
2023/08/09 10:37:09;;;;;;;;;;;;;;;;;;5014581;28;19924;-72
2023/08/09 10:39:55;;;;;;;;;;;;;;;;;;5019718;28;19929;-72
2023/08/09 10:42:42;;;;;;;;;;;;;;;;;;5018444;28;19921;-72
2023/08/09 10:45:29;;;;;;;;;;;;;;;;;;5022045;28;20379;-73
2023/08/09 10:48:17;;;;;;;;;;;;;;;;;;5021438;28;19922;-72
2023/08/09 10:51:03;;;;;;;;;;;;;;;;;;5012600;28;19918;-72
2023/08/09 10:53:50;;;;;;;;;;;;;;;;;;5021367;28;20561;-73
2023/08/09 10:56:39;;;;;;;;;;;;;;;;;;5024207;28;19917;-72
2023/08/09 10:59:27;;;;;;;;;;;;;;;;;;5022008;28;20398;-73
2023/08/09 11:02:13;;;;;;;;;;;;;;;;;;5017968;28;20348;-72
2023/08/09 11:05:00;;;;;;;;;;;;;;;;;;5017890;28;19944;-72
2023/08/09 11:07:46;;;;;;;;;;;;;;;;;;5023775;28;19924;-73
2023/08/09 11:10:33;;;;;;;;;;;;;;;;;;5025908;28;19917;-73
2023/08/09 11:13:19;;;;;;;;;;;;;;;;;;5023624;28;19925;-72
2023/08/09 11:16:06;;;;;;;;;;;;;;;;;;5022062;28;19928;-72
2023/08/09 11:18:52;;;;;;;;;;;;;;;;;;5005541;28;19917;-71
2023/08/09 11:21:39;;;;;;;;;;;;;;;;;;5020681;28;20404;-71
2023/08/09 11:24:25;;;;;;;;;;;;;;;;;;5017367;28;19921;-71
2023/08/09 11:27:12;;;;;;;;;;;;;;;;;;5024351;28;20385;-71
2023/08/09 11:29:58;;;;;;;;;;;;;;;;;;5017579;28;19921;-72
2023/08/09 11:32:44;;;;;;;;;;;;;;;;;;5020954;28;19918;-72
2023/08/09 11:35:31;;;;;;;;;;;;;;;;;;5025949;28;20416;-71
2023/08/09 11:38:17;;;;;;;;;;;;;;;;;;5024504;28;20028;-71
2023/08/09 11:41:04;;;;;;;;;;;;;;;;;;5024006;28;21352;-71
2023/08/09 11:43:51;;;;;;;;;;;;;;;;;;5016981;28;19921;-71
2023/08/09 11:46:40;;;;;;;;;;;;;;;;;;5017922;28;19936;-70
2023/08/09 11:49:26;;;;;;;;;;;;;;;;;;4996165;28;19947;-71
2023/08/09 11:52:13;;;;;;;;;;;;;;;;;;5012893;28;19944;-71
2023/08/09 11:55:00;;;;;;;;;;;;;;;;;;5018834;28;19929;-71
2023/08/09 11:57:47;;;;;;;;;;;;;;;;;;5021519;28;19924;-72
2023/08/09 12:00:33;;;;;;;;;;;;;;;;;;5001598;28;19922;-71
2023/08/09 12:03:19;;;;;;;;;;;;;;;;;;5016268;28;19921;-71
2023/08/09 12:06:06;;;;;;;;;;;;;;;;;;5013357;28;19928;-71
2023/08/09 12:08:52;;;;;;;;;;;;;;;;;;5021660;28;19921;-72
2023/08/09 12:11:39;;;;;;;;;;;;;;;;;;5010337;28;19922;-71
2023/08/09 12:14:25;;;;;;;;;;;;;;;;;;5022489;28;19948;-71
2023/08/09 12:17:12;;;;;;;;;;;;;;;;;;5019969;28;19922;-71
2023/08/09 12:19:58;;;;;;;;;;;;;;;;;;5018839;28;19925;-71
2023/08/09 12:22:45;;;;;;;;;;;;;;;;;;5017617;28;19932;-72
2023/08/09 12:25:31;;;;;;;;;;;;;;;;;;5021659;28;20312;-71
2023/08/09 12:28:18;;;;;;;;;;;;;;;;;;5015233;28;19922;-71
2023/08/09 12:31:05;;;;;;;;;;;;;;;;;;5019548;28;19925;-71
2023/08/09 12:33:53;;;;;;;;;;;;;;;;;;4991065;28;20573;-71
2023/08/09 12:36:39;;;;;;;;;;;;;;;;;;5015768;28;19925;-71
2023/08/09 12:39:27;;;;;;;;;;;;;;;;;;5004102;28;19917;-71
2023/08/09 12:42:13;;;;;;;;;;;;;;;;;;5019647;28;19944;-71
2023/08/09 12:45:00;;;;;;;;;;;;;;;;;;5012764;28;19921;-71
2023/08/09 12:47:47;;;;;;;;;;;;;;;;;;5013412;28;19936;-71
2023/08/09 12:50:33;;;;;;;;;;;;;;;;;;5016273;28;19917;-70
2023/08/09 12:53:20;;;;;;;;;;;;;;;;;;5018122;28;20387;-70
2023/08/09 12:56:06;;;;;;;;;;;;;;;;;;5013724;28;20300;-70
2023/08/09 12:58:53;;;;;;;;;;;;;;;;;;5017993;28;19966;-70
2023/08/09 13:01:40;;;;;;;;;;;;;;;;;;5023536;28;19932;-70
2023/08/09 13:04:27;;;;;;;;;;;;;;;;;;5012158;28;19928;-70
2023/08/09 13:07:13;;;;;;;;;;;;;;;;;;5016641;28;19918;-71
2023/08/09 13:10:00;;;;;;;;;;;;;;;;;;5016227;28;19928;-70
2023/08/09 13:12:47;;;;;;;;;;;;;;;;;;5022040;28;19925;-70
2023/08/09 13:15:33;;;;;;;;;;;;;;;;;;5000670;28;19935;-70
2023/08/09 13:18:20;;;;;;;;;;;;;;;;;;5014306;28;20561;-71
2023/08/09 13:21:09;;;;;;;;;;;;;;;;;;5015230;28;19968;-71
2023/08/09 13:23:56;;;;;;;;;;;;;;;;;;5018427;28;19917;-71
2023/08/09 13:26:42;;;;;;;;;;;;;;;;;;5019871;28;19928;-72
2023/08/09 13:29:28;;;;;;;;;;;;;;;;;;5021594;28;19927;-72
2023/08/09 13:32:15;;;;;;;;;;;;;;;;;;5019963;28;19921;-71
2023/08/09 13:35:02;;;;;;;;;;;;;;;;;;5015389;28;19929;-72
2023/08/09 13:37:48;;;;;;;;;;;;;;;;;;5011332;28;19921;-71
2023/08/09 13:40:35;;;;;;;;;;;;;;;;;;5021886;28;20297;-70
2023/08/09 13:43:21;;;;;;;;;;;;;;;;;;5012081;28;19937;-71
2023/08/09 13:46:07;;;;;;;;;;;;;;;;;;5019259;28;19936;-70
2023/08/09 13:48:54;;;;;;;;;;;;;;;;;;5021335;28;19920;-71
2023/08/09 13:51:40;;;;;;;;;;;;;;;;;;5018283;28;19931;-71
2023/08/09 13:54:27;;;;;;;;;;;;;;;;;;5014650;28;19936;-71
2023/08/09 13:57:14;;;;;;;;;;;;;;;;;;5006090;28;19956;-73
2023/08/09 14:00:03;;;;;;;;;;;;;;;;;;5007843;28;19928;-70
2023/08/09 14:02:49;;;;;;;;;;;;;;;;;;5017410;28;19925;-71
2023/08/09 14:05:36;;;;;;;;;;;;;;;;;;5024229;28;19943;-71
2023/08/09 14:08:22;;;;;;;;;;;;;;;;;;5019565;28;19914;-71
2023/08/09 14:11:09;;;;;;;;;;;;;;;;;;5023142;28;20521;-72
2023/08/09 14:13:55;;;;;;;;;;;;;;;;;;5021310;28;19929;-71
2023/08/09 14:16:42;;;;;;;;;;;;;;;;;;5021403;28;19918;-71
2023/08/09 14:19:28;;;;;;;;;;;;;;;;;;5020853;28;19936;-71
2023/08/09 14:22:15;;;;;;;;;;;;;;;;;;5024412;28;19921;-71
2023/08/09 14:25:01;;;;;;;;;;;;;;;;;;5015731;28;19929;-71
2023/08/09 14:27:48;;;;;;;;;;;;;;;;;;5024697;28;19924;-71
2023/08/09 14:30:37;;;;;;;;;;;;;;;;;;5019142;28;20498;-71
2023/08/09 14:33:24;;;;;;;;;;;;;;;;;;5022873;28;19922;-70
2023/08/09 14:36:10;;;;;;;;;;;;;;;;;;5022336;28;19920;-71
2023/08/09 14:38:57;;;;;;;;;;;;;;;;;;5020207;28;19932;-72
2023/08/09 14:41:43;;;;;;;;;;;;;;;;;;5019558;28;19918;-71
2023/08/09 14:44:30;;;;;;;;;;;;;;;;;;5022731;28;20403;-71
2023/08/09 14:47:16;;;;;;;;;;;;;;;;;;5024716;28;20381;-71
2023/08/09 14:50:03;;;;;;;;;;;;;;;;;;5019119;28;19928;-71
2023/08/09 14:52:49;;;;;;;;;;;;;;;;;;5021202;28;19928;-71
2023/08/09 14:55:36;;;;;;;;;;;;;;;;;;5023203;28;19932;-71
2023/08/09 14:58:22;;;;;;;;;;;;;;;;;;5016961;28;19921;-71
2023/08/09 15:01:09;;;;;;;;;;;;;;;;;;5018397;28;19923;-72
2023/08/09 15:03:55;;;;;;;;;;;;;;;;;;5020165;28;19921;-72
2023/08/09 15:06:42;;;;;;;;;;;;;;;;;;5017367;28;20663;-71
2023/08/09 15:09:29;;;;;;;;;;;;;;;;;;5022137;28;19924;-71
2023/08/09 15:12:17;;;;;;;;;;;;;;;;;;5013835;28;20432;-70
2023/08/09 15:15:04;;;;;;;;;;;;;;;;;;5020345;28;20411;-71
2023/08/09 15:17:50;;;;;;;;;;;;;;;;;;5023344;28;19921;-71
2023/08/09 15:20:37;;;;;;;;;;;;;;;;;;5028513;28;19924;-73
2023/08/09 15:23:23;;;;;;;;;;;;;;;;;;5025706;28;19928;-72
2023/08/09 15:26:10;;;;;;;;;;;;;;;;;;5021899;28;20575;-70
2023/08/09 15:28:56;;;;;;;;;;;;;;;;;;5023139;28;19928;-71
2023/08/09 15:31:43;;;;;;;;;;;;;;;;;;5028296;28;19917;-71
2023/08/09 15:34:30;;;;;;;;;;;;;;;;;;5025807;28;19951;-72
2023/08/09 15:37:16;;;;;;;;;;;;;;;;;;5021862;28;19920;-71
2023/08/09 15:40:03;;;;;;;;;;;;;;;;;;5029131;28;19913;-71
2023/08/09 15:42:49;;;;;;;;;;;;;;;;;;5023662;28;20406;-72
2023/08/09 15:45:36;;;;;;;;;;;;;;;;;;5016528;28;19925;-71
2023/08/09 15:48:22;;;;;;;;;;;;;;;;;;5016311;28;19922;-71
2023/08/09 15:51:09;;;;;;;;;;;;;;;;;;5015254;28;19921;-71
2023/08/09 15:53:55;;;;;;;;;;;;;;;;;;5022165;28;20320;-71
2023/08/09 15:56:42;;;;;;;;;;;;;;;;;;5015455;28;19921;-71
2023/08/09 15:59:28;;;;;;;;;;;;;;;;;;5011377;28;19933;-71
2023/08/09 16:02:15;;;;;;;;;;;;;;;;;;5023985;28;20039;-71
2023/08/09 16:05:02;;;;;;;;;;;;;;;;;;5018689;28;19927;-70
2023/08/09 16:07:48;;;;;;;;;;;;;;;;;;5015024;28;19921;-69
2023/08/09 16:10:35;;;;;;;;;;;;;;;;;;5017649;28;19921;-70
2023/08/09 16:13:21;;;;;;;;;;;;;;;;;;5021948;28;20415;-71
2023/08/09 16:16:07;;;;;;;;;;;;;;;;;;5022334;28;19918;-70
2023/08/09 16:18:54;;;;;;;;;;;;;;;;;;5018725;28;19921;-71
2023/08/09 16:21:40;;;;;;;;;;;;;;;;;;5023059;28;19924;-70
2023/08/09 16:24:27;;;;;;;;;;;;;;;;;;5018837;28;19927;-70
2023/08/09 16:27:13;;;;;;;;;;;;;;;;;;5021041;28;19921;-70
2023/08/09 16:30:00;;;;;;;;;;;;;;;;;;5018081;28;20264;-70
2023/08/09 16:32:46;;;;;;;;;;;;;;;;;;5021646;28;20307;-70
2023/08/09 16:35:38;;;;;;;;;;;;;;;;;;5017370;28;19925;-70
2023/08/09 16:38:24;;;;;;;;;;;;;;;;;;5020789;28;19917;-70
2023/08/09 16:41:14;;;;;;;;;;;;;;;;;;5021612;28;19913;-72
2023/08/09 16:44:00;;;;;;;;;;;;;;;;;;5018630;28;19921;-71
2023/08/09 16:46:46;;;;;;;;;;;;;;;;;;5019224;28;19932;-69
2023/08/09 16:49:33;;;;;;;;;;;;;;;;;;5016545;28;19921;-70
2023/08/09 16:52:20;;;;;;;;;;;;;;;;;;5020788;28;19928;-69
2023/08/09 16:55:07;;;;;;;;;;;;;;;;;;5020470;28;20406;-70
2023/08/09 16:57:53;;;;;;;;;;;;;;;;;;5016183;28;19917;-70
2023/08/09 17:00:40;;;;;;;;;;;;;;;;;;5015990;28;19925;-70
2023/08/09 17:03:28;;;;;;;;;;;;;;;;;;5021069;28;20410;-70
2023/08/09 17:06:15;;;;;;;;;;;;;;;;;;5019145;28;20578;-71
2023/08/09 17:09:01;;;;;;;;;;;;;;;;;;5019170;28;19924;-70
2023/08/09 17:11:48;;;;;;;;;;;;;;;;;;5020313;28;19928;-70
2023/08/09 17:14:34;;;;;;;;;;;;;;;;;;5018719;28;19933;-70
2023/08/09 17:17:21;;;;;;;;;;;;;;;;;;5013470;28;19913;-71
2023/08/09 17:20:08;;;;;;;;;;;;;;;;;;5018832;28;19971;-71
2023/08/09 17:22:55;;;;;;;;;;;;;;;;;;5021120;28;19920;-71
2023/08/09 17:25:41;;;;;;;;;;;;;;;;;;5018115;28;19944;-70
2023/08/09 17:28:28;;;;;;;;;;;;;;;;;;5006720;28;19932;-71
2023/08/09 17:31:14;;;;;;;;;;;;;;;;;;5017703;28;20594;-71
2023/08/09 17:34:01;;;;;;;;;;;;;;;;;;5024457;28;19927;-71
2023/08/09 17:36:48;;;;;;;;;;;;;;;;;;5019077;28;19924;-71
2023/08/09 17:39:35;;;;;;;;;;;;;;;;;;5024621;28;20447;-71
2023/08/09 17:42:22;;;;;;;;;;;;;;;;;;5018546;28;20003;-71
2023/08/09 17:45:08;;;;;;;;;;;;;;;;;;5025780;28;20391;-70
2023/08/09 17:47:55;;;;;;;;;;;;;;;;;;5025979;28;19928;-70
2023/08/09 17:50:41;;;;;;;;;;;;;;;;;;5022362;28;19924;-71
2023/08/09 17:53:27;;;;;;;;;;;;;;;;;;5025991;28;20381;-71
2023/08/09 17:56:14;;;;;;;;;;;;;;;;;;5011744;28;19932;-71
2023/08/09 17:59:00;;;;;;;;;;;;;;;;;;5013802;28;19952;-71
2023/08/09 18:01:47;;;;;;;;;;;;;;;;;;5015329;28;19919;-70
2023/08/09 18:04:33;;;;;;;;;;;;;;;;;;5022860;28;19925;-71
2023/08/09 18:07:20;;;;;;;;;;;;;;;;;;5008355;28;19940;-72
2023/08/09 18:10:08;;;;;;;;;;;;;;;;;;5024394;28;19928;-71
2023/08/09 18:12:55;;;;;;;;;;;;;;;;;;5019228;28;20027;-71
2023/08/09 18:15:41;;;;;;;;;;;;;;;;;;5024789;28;20344;-72
2023/08/09 18:18:27;;;;;;;;;;;;;;;;;;5024292;28;19928;-71
2023/08/09 18:21:14;;;;;;;;;;;;;;;;;;5008381;28;19921;-72
2023/08/09 18:24:00;;;;;;;;;;;;;;;;;;5013964;28;19921;-71
2023/08/09 18:26:47;;;;;;;;;;;;;;;;;;5026229;28;19954;-70
2023/08/09 18:29:33;;;;;;;;;;;;;;;;;;5025739;28;20389;-71
2023/08/09 18:32:20;;;;;;;;;;;;;;;;;;5022538;28;20369;-71
2023/08/09 18:35:06;;;;;;;;;;;;;;;;;;5020274;28;19936;-72
2023/08/09 18:37:53;;;;;;;;;;;;;;;;;;5010441;28;19940;-71
2023/08/09 18:40:39;;;;;;;;;;;;;;;;;;5013926;28;19925;-71
2023/08/09 18:43:26;;;;;;;;;;;;;;;;;;5017597;28;19917;-71
2023/08/09 18:46:12;;;;;;;;;;;;;;;;;;5025936;28;20304;-72
2023/08/09 18:48:59;;;;;;;;;;;;;;;;;;5023540;28;19931;-71
2023/08/09 18:51:47;;;;;;;;;;;;;;;;;;5018793;28;20464;-71
2023/08/09 18:54:34;;;;;;;;;;;;;;;;;;5006484;28;19929;-71
2023/08/09 18:57:20;;;;;;;;;;;;;;;;;;5016256;28;19929;-71